Rolla, Kansas
Current Conditions -  °F | °C
As of 1:53 PM on Sunday 21 Dec 2014 (Local Time) from KGUY Reporting Station
Clear Clear  
Wind Chill: 55°   Ceiling: Unl
Heat Index: 55°   Visibility: 10mi
Dew Point: 32°   Wind: 8mph
Humidity: 42%   Direction: 170°S
Pressure: 29.63"   Gusts: NA
Location:  37.12°N, 101.63°W
Report Text: KGUY 211953Z AUTO 17007KT 10SM CLR 13/00 A2963 RMK AO2 SLP026 T01280000
Loading
Personal Weather Stations






























Interactive Weather Map New forecast layout! Learn more

10-Day Weather Forecast

Advertisements
Track Severe Weather on mobile